createdAt,value
2017-09-11T00:00:31.072Z,993.43
2017-09-11T00:01:11.602Z,993.4
2017-09-11T00:01:52.137Z,993.42
2017-09-11T00:02:32.676Z,993.51
2017-09-11T00:03:13.207Z,993.45
2017-09-11T00:03:53.746Z,993.41
2017-09-11T00:04:34.270Z,993.43
2017-09-11T00:05:14.806Z,993.39
2017-09-11T00:05:55.337Z,993.41
2017-09-11T00:06:35.872Z,993.43
2017-09-11T00:07:16.415Z,993.37
2017-09-11T00:07:56.990Z,993.32
2017-09-11T00:08:37.491Z,993.38
2017-09-11T00:09:18.038Z,993.32
2017-09-11T00:09:58.537Z,993.26
2017-09-11T00:10:39.065Z,993.25
2017-09-11T00:11:19.602Z,993.34
2017-09-11T00:12:00.127Z,993.21
2017-09-11T00:12:40.658Z,993.14
2017-09-11T00:13:21.186Z,993.19
2017-09-11T00:14:01.723Z,993.2
2017-09-11T00:14:42.256Z,993.08
2017-09-11T00:15:22.785Z,993.15
2017-09-11T00:16:03.317Z,993.1
2017-09-11T00:16:43.849Z,993.06
2017-09-11T00:17:24.390Z,993.15
2017-09-11T00:18:04.949Z,993.08
2017-09-11T00:18:45.470Z,993.14
2017-09-11T00:19:26.011Z,993.03
2017-09-11T00:20:06.538Z,993.03
2017-09-11T00:20:47.096Z,992.99
2017-09-11T00:21:27.593Z,993.05
2017-09-11T00:22:08.135Z,993.08
2017-09-11T00:22:48.678Z,993.04
2017-09-11T00:23:29.184Z,993.02
2017-09-11T00:24:09.726Z,992.96
2017-09-11T00:24:50.249Z,992.98
2017-09-11T00:25:30.774Z,992.95
2017-09-11T00:26:11.304Z,992.99
2017-09-11T00:26:51.816Z,993.04
2017-09-11T00:27:32.358Z,993.04
2017-09-11T00:28:12.889Z,993.02
2017-09-11T00:28:53.434Z,993.04
2017-09-11T00:29:33.969Z,992.96
2017-09-11T00:30:14.508Z,993.01
2017-09-11T00:30:55.021Z,993.09
2017-09-11T00:31:35.558Z,993.08
2017-09-11T00:32:16.086Z,993.04
2017-09-11T00:32:56.629Z,993.01
2017-09-11T00:33:37.164Z,993.02
2017-09-11T00:34:17.697Z,992.96
2017-09-11T00:34:58.234Z,993
2017-09-11T00:35:38.750Z,992.94
2017-09-11T00:36:19.293Z,992.93
2017-09-11T00:36:59.822Z,992.97
2017-09-11T00:37:40.344Z,992.9
2017-09-11T00:38:20.884Z,992.85
2017-09-11T00:39:01.416Z,992.97
2017-09-11T00:39:41.971Z,992.94
2017-09-11T00:40:22.508Z,993
2017-09-11T00:41:03.037Z,993.09
2017-09-11T00:41:43.579Z,992.99
2017-09-11T00:42:24.094Z,993.02
2017-09-11T00:43:04.623Z,993.04
2017-09-11T00:43:45.160Z,992.99
2017-09-11T00:44:25.692Z,993
2017-09-11T00:45:06.224Z,993.01
2017-09-11T00:45:46.754Z,993.04
2017-09-11T00:46:27.283Z,993.03
2017-09-11T00:47:07.813Z,993.01
2017-09-11T00:47:48.349Z,992.98
2017-09-11T00:48:28.891Z,993.03
2017-09-11T00:49:09.421Z,992.98
2017-09-11T00:49:49.953Z,993.03
2017-09-11T00:50:30.477Z,993.01
2017-09-11T00:51:11.013Z,993
2017-09-11T00:51:51.603Z,993.02
2017-09-11T00:52:32.108Z,992.99
2017-09-11T00:53:12.657Z,993.05
2017-09-11T00:53:53.181Z,993
2017-09-11T00:54:33.711Z,992.97
2017-09-11T00:55:14.244Z,992.95
2017-09-11T00:55:54.782Z,992.93
2017-09-11T00:56:35.322Z,992.89
2017-09-11T00:57:15.867Z,992.95
2017-09-11T00:57:56.387Z,992.94
2017-09-11T00:58:36.905Z,992.88
2017-09-11T00:59:17.445Z,992.85
2017-09-11T00:59:57.974Z,992.8
2017-09-11T01:00:38.510Z,992.82
2017-09-11T01:01:19.048Z,992.79
2017-09-11T01:01:59.622Z,992.78
2017-09-11T01:02:40.128Z,992.82
2017-09-11T01:03:20.643Z,992.78
2017-09-11T01:04:01.174Z,992.87
2017-09-11T01:04:41.713Z,992.81
2017-09-11T01:05:22.252Z,992.77
2017-09-11T01:06:02.793Z,992.76
2017-09-11T01:06:43.318Z,992.74
2017-09-11T01:07:23.855Z,992.76
2017-09-11T01:08:04.379Z,992.69
2017-09-11T01:08:44.906Z,992.66
2017-09-11T01:09:25.448Z,992.7
2017-09-11T01:10:05.981Z,992.68
2017-09-11T01:10:46.503Z,992.67
2017-09-11T01:11:27.027Z,992.66
2017-09-11T01:12:07.574Z,992.67
2017-09-11T01:12:48.112Z,992.63
2017-09-11T01:13:28.633Z,992.66
2017-09-11T01:14:09.167Z,992.66
2017-09-11T01:14:49.705Z,992.65
2017-09-11T01:15:30.239Z,992.66
2017-09-11T01:16:10.779Z,992.62
2017-09-11T01:16:51.323Z,992.6
2017-09-11T01:17:31.862Z,992.57
2017-09-11T01:18:12.399Z,992.6
2017-09-11T01:18:52.942Z,992.61
2017-09-11T01:19:33.465Z,992.58
2017-09-11T01:20:14.007Z,992.53
2017-09-11T01:20:54.540Z,992.61
2017-09-11T01:21:35.075Z,992.58
2017-09-11T01:22:15.595Z,992.57
2017-09-11T01:22:56.139Z,992.58
2017-09-11T01:23:36.662Z,992.52
2017-09-11T01:24:17.194Z,992.54
2017-09-11T01:24:57.722Z,992.52
2017-09-11T01:25:38.265Z,992.48
2017-09-11T01:26:18.806Z,992.59
2017-09-11T01:26:59.338Z,992.52
2017-09-11T01:27:39.863Z,992.46
2017-09-11T01:28:20.383Z,992.51
2017-09-11T01:29:00.923Z,992.59
2017-09-11T01:29:41.464Z,992.5
2017-09-11T01:30:21.992Z,992.43
2017-09-11T01:31:02.531Z,992.38
2017-09-11T01:31:43.058Z,992.38
2017-09-11T01:32:23.598Z,992.37
2017-09-11T01:33:04.130Z,992.39
2017-09-11T01:33:44.648Z,992.34
2017-09-11T01:34:25.185Z,992.37
2017-09-11T01:35:05.718Z,992.34
2017-09-11T01:35:46.259Z,992.36
2017-09-11T01:36:26.789Z,992.36
2017-09-11T01:37:07.318Z,992.37
2017-09-11T01:37:47.879Z,992.3
2017-09-11T01:38:28.403Z,992.32
2017-09-11T01:39:08.922Z,992.32
2017-09-11T01:39:49.450Z,992.31
2017-09-11T01:40:29.993Z,992.36
2017-09-11T01:41:10.528Z,992.35
2017-09-11T01:41:51.070Z,992.39
2017-09-11T01:42:31.592Z,992.35
2017-09-11T01:43:12.129Z,992.37
2017-09-11T01:43:52.674Z,992.31
2017-09-11T01:44:33.195Z,992.37
2017-09-11T01:45:13.742Z,992.3
2017-09-11T01:45:54.281Z,992.35
2017-09-11T01:46:34.813Z,992.35
2017-09-11T01:47:15.349Z,992.29
2017-09-11T01:47:55.881Z,992.33
2017-09-11T01:48:36.419Z,992.31
2017-09-11T01:49:16.956Z,992.31
2017-09-11T01:49:57.474Z,992.27
2017-09-11T01:50:38.009Z,992.37
2017-09-11T01:51:18.545Z,992.33
2017-09-11T01:51:59.106Z,992.34
2017-09-11T01:52:39.634Z,992.29
2017-09-11T01:53:20.168Z,992.29
2017-09-11T01:54:00.702Z,992.23
2017-09-11T01:54:41.231Z,992.35
2017-09-11T01:55:21.743Z,992.3
2017-09-11T01:56:02.274Z,992.29
2017-09-11T01:56:42.793Z,992.3
2017-09-11T01:57:23.332Z,992.32
2017-09-11T01:58:03.860Z,992.35
2017-09-11T01:58:44.400Z,992.32
2017-09-11T01:59:24.928Z,992.3
2017-09-11T02:00:05.457Z,992.3
2017-09-11T02:00:45.996Z,992.26
2017-09-11T02:01:26.532Z,992.35
2017-09-11T02:02:07.068Z,992.3
2017-09-11T02:02:47.605Z,992.29
2017-09-11T02:03:28.132Z,992.29
2017-09-11T02:04:08.665Z,992.2
2017-09-11T02:04:49.194Z,992.24
2017-09-11T02:05:29.712Z,992.26
2017-09-11T02:06:10.255Z,992.27
2017-09-11T02:06:50.796Z,992.21
2017-09-11T02:07:31.340Z,992.21
2017-09-11T02:08:11.872Z,992.23
2017-09-11T02:08:52.399Z,992.43
2017-09-11T02:09:32.919Z,992.18
2017-09-11T02:10:13.453Z,992.24
2017-09-11T02:10:53.977Z,992.24
2017-09-11T02:11:34.508Z,992.17
2017-09-11T02:12:15.059Z,992.14
2017-09-11T02:12:55.546Z,992.17
2017-09-11T02:13:36.074Z,992.14
2017-09-11T02:14:16.609Z,992.22
2017-09-11T02:14:57.140Z,992.14
2017-09-11T02:15:37.668Z,992.19
2017-09-11T02:16:18.209Z,992.17
2017-09-11T02:16:58.722Z,992.2
2017-09-11T02:17:39.264Z,992.22
2017-09-11T02:18:19.802Z,992.15
2017-09-11T02:19:00.339Z,992.15
2017-09-11T02:19:40.870Z,992.21
2017-09-11T02:20:21.412Z,992.23
2017-09-11T02:21:01.952Z,992.17
2017-09-11T02:21:42.488Z,992.16
2017-09-11T02:22:23.031Z,992.12
2017-09-11T02:23:03.566Z,992.14
2017-09-11T02:23:44.086Z,992.1
2017-09-11T02:24:24.617Z,992.12
2017-09-11T02:25:05.154Z,992.11
2017-09-11T02:25:45.692Z,992.17
2017-09-11T02:26:26.254Z,992.14
2017-09-11T02:27:06.788Z,992.16
2017-09-11T02:27:47.329Z,992.12
2017-09-11T02:28:27.865Z,992.15
2017-09-11T02:29:08.381Z,992.08
2017-09-11T02:29:48.910Z,992.08
2017-09-11T02:30:29.447Z,992.08
2017-09-11T02:31:09.987Z,992.16
2017-09-11T02:31:50.514Z,992.09
2017-09-11T02:32:31.056Z,992.14
2017-09-11T02:33:11.583Z,992.08
2017-09-11T02:33:52.126Z,992.08
2017-09-11T02:34:32.661Z,992.09
2017-09-11T02:35:13.196Z,992.09
2017-09-11T02:35:53.734Z,992.04
2017-09-11T02:36:34.271Z,992.08
2017-09-11T02:37:14.808Z,992.02
2017-09-11T02:37:55.336Z,992.09
2017-09-11T02:38:35.875Z,992.08
2017-09-11T02:39:16.400Z,992.12
2017-09-11T02:39:56.938Z,992.08
2017-09-11T02:40:37.472Z,992.07
2017-09-11T02:41:18.011Z,992.08
2017-09-11T02:41:58.542Z,991.98
2017-09-11T02:42:39.070Z,992
2017-09-11T02:43:19.605Z,991.99
2017-09-11T02:44:00.150Z,991.98
2017-09-11T02:44:40.688Z,992.04
2017-09-11T02:45:21.209Z,991.98
2017-09-11T02:46:01.734Z,991.97
2017-09-11T02:46:42.271Z,991.98
2017-09-11T02:47:22.797Z,991.94
2017-09-11T02:48:03.371Z,991.96
2017-09-11T02:48:43.902Z,991.93
2017-09-11T02:49:24.445Z,991.86
2017-09-11T02:50:04.988Z,991.88
2017-09-11T02:50:45.517Z,991.92
2017-09-11T02:51:26.030Z,991.86
2017-09-11T02:52:06.559Z,991.87
2017-09-11T02:52:47.107Z,991.84
2017-09-11T02:53:27.642Z,991.84
2017-09-11T02:54:08.172Z,991.94
2017-09-11T02:54:48.724Z,991.84
2017-09-11T02:55:29.256Z,991.84
2017-09-11T02:56:09.799Z,991.81
2017-09-11T02:56:50.328Z,991.81
2017-09-11T02:57:30.869Z,991.85
2017-09-11T02:58:11.399Z,991.84
2017-09-11T02:58:51.939Z,991.85
2017-09-11T02:59:32.475Z,991.88
2017-09-11T03:00:13.008Z,991.78
2017-09-11T03:00:53.543Z,991.85
2017-09-11T03:01:34.074Z,991.82
2017-09-11T03:02:14.606Z,991.83
2017-09-11T03:02:55.151Z,991.89
2017-09-11T03:03:35.694Z,991.84
2017-09-11T03:04:16.238Z,991.87
2017-09-11T03:04:56.811Z,991.88
2017-09-11T03:05:37.308Z,991.9
2017-09-11T03:06:17.839Z,991.89
2017-09-11T03:06:58.375Z,991.81
2017-09-11T03:07:38.918Z,991.81
2017-09-11T03:08:19.457Z,991.84
2017-09-11T03:08:59.964Z,991.84
2017-09-11T03:09:40.495Z,991.86
2017-09-11T03:10:21.030Z,991.8
2017-09-11T03:11:01.568Z,991.82
2017-09-11T03:11:42.107Z,991.8
2017-09-11T03:12:22.658Z,991.78
2017-09-11T03:13:03.194Z,991.79
2017-09-11T03:13:43.742Z,991.86
2017-09-11T03:14:24.283Z,991.83
2017-09-11T03:15:04.806Z,991.76
2017-09-11T03:15:45.330Z,991.72
2017-09-11T03:16:25.856Z,991.75
2017-09-11T03:17:06.371Z,991.73
2017-09-11T03:17:46.900Z,991.75
2017-09-11T03:18:27.438Z,991.67
2017-09-11T03:19:07.979Z,991.7
2017-09-11T03:19:48.505Z,991.71
2017-09-11T03:20:29.038Z,991.69
2017-09-11T03:21:09.556Z,991.68
2017-09-11T03:21:50.086Z,991.63
2017-09-11T03:22:30.732Z,991.67
2017-09-11T03:23:11.270Z,991.69
2017-09-11T03:23:51.811Z,991.73
2017-09-11T03:24:32.328Z,991.76
2017-09-11T03:25:12.837Z,991.71
2017-09-11T03:25:53.381Z,991.66
2017-09-11T03:26:33.921Z,991.68
2017-09-11T03:27:14.465Z,991.71
2017-09-11T03:27:54.997Z,991.68
2017-09-11T03:28:35.519Z,991.64
2017-09-11T03:29:16.040Z,991.68
2017-09-11T03:29:56.578Z,991.62
2017-09-11T03:30:37.126Z,991.64
2017-09-11T03:31:17.651Z,991.63
2017-09-11T03:31:58.177Z,991.6
2017-09-11T03:32:38.710Z,991.63
2017-09-11T03:33:19.240Z,991.6
2017-09-11T03:33:59.779Z,991.62
2017-09-11T03:34:40.317Z,991.6
2017-09-11T03:35:20.833Z,991.67
2017-09-11T03:36:01.360Z,991.54
2017-09-11T03:36:41.912Z,991.55
2017-09-11T03:37:22.441Z,991.5
2017-09-11T03:38:02.983Z,991.51
2017-09-11T03:38:43.513Z,991.46
2017-09-11T03:39:24.070Z,991.54
2017-09-11T03:40:04.587Z,991.58
2017-09-11T03:40:45.116Z,991.5
2017-09-11T03:41:25.644Z,991.48
2017-09-11T03:42:06.191Z,991.47
2017-09-11T03:42:46.734Z,991.46
2017-09-11T03:43:27.272Z,991.46
2017-09-11T03:44:07.817Z,991.49
2017-09-11T03:44:48.342Z,991.5
2017-09-11T03:45:28.938Z,991.45
2017-09-11T03:46:09.479Z,991.44
2017-09-11T03:46:50.005Z,991.43
2017-09-11T03:47:30.529Z,991.46
2017-09-11T03:48:11.061Z,991.45
2017-09-11T03:48:51.602Z,991.48
2017-09-11T03:49:32.139Z,991.49
2017-09-11T03:50:12.664Z,991.51
2017-09-11T03:50:53.191Z,991.41
2017-09-11T03:51:33.711Z,991.41
2017-09-11T03:52:14.254Z,991.45
2017-09-11T03:52:54.783Z,991.48
2017-09-11T03:53:35.322Z,991.4
2017-09-11T03:54:15.860Z,991.45
2017-09-11T03:54:56.393Z,991.44
2017-09-11T03:55:36.927Z,991.43
2017-09-11T03:56:17.457Z,991.48
2017-09-11T03:56:57.973Z,991.45
2017-09-11T03:57:38.496Z,991.49
2017-09-11T03:58:19.026Z,991.52
2017-09-11T03:58:59.554Z,991.47
2017-09-11T03:59:40.088Z,991.5
2017-09-11T04:00:20.629Z,991.39
2017-09-11T04:01:01.162Z,991.44
2017-09-11T04:01:41.680Z,991.44
2017-09-11T04:02:22.213Z,991.45
2017-09-11T04:03:02.762Z,991.49
2017-09-11T04:03:43.303Z,991.44
2017-09-11T04:04:23.842Z,991.44
2017-09-11T04:05:04.381Z,991.48
2017-09-11T04:05:44.920Z,991.42
2017-09-11T04:06:25.442Z,991.39
2017-09-11T04:07:05.991Z,991.37
2017-09-11T04:07:46.534Z,991.39
2017-09-11T04:08:27.066Z,991.39
2017-09-11T04:09:07.606Z,991.42
2017-09-11T04:09:48.147Z,991.4
2017-09-11T04:10:28.676Z,991.39
2017-09-11T04:11:09.212Z,991.38
2017-09-11T04:11:49.742Z,991.37
2017-09-11T04:12:30.272Z,991.39
2017-09-11T04:13:10.806Z,991.36
2017-09-11T04:13:51.347Z,991.39
2017-09-11T04:14:31.887Z,991.37
2017-09-11T04:15:12.440Z,991.37
2017-09-11T04:15:52.964Z,991.39
2017-09-11T04:16:33.501Z,991.38
2017-09-11T04:17:14.028Z,991.38
2017-09-11T04:17:54.573Z,991.34
2017-09-11T04:18:35.112Z,991.35
2017-09-11T04:19:15.652Z,991.35
2017-09-11T04:19:56.184Z,991.39
2017-09-11T04:20:36.716Z,991.43
2017-09-11T04:21:17.232Z,991.44
2017-09-11T04:21:57.769Z,991.37
2017-09-11T04:22:38.304Z,991.4
2017-09-11T04:23:18.812Z,991.38
2017-09-11T04:23:59.354Z,991.35
2017-09-11T04:24:39.868Z,991.33
2017-09-11T04:25:20.408Z,991.33
2017-09-11T04:26:00.947Z,991.28
2017-09-11T04:26:41.484Z,991.29
2017-09-11T04:27:22.036Z,991.28
2017-09-11T04:28:02.550Z,991.25
2017-09-11T04:28:43.083Z,991.24
2017-09-11T04:29:23.614Z,991.22
2017-09-11T04:30:04.151Z,991.21
2017-09-11T04:30:44.676Z,991.21
2017-09-11T04:31:25.203Z,991.22
2017-09-11T04:32:05.722Z,991.22
2017-09-11T04:32:46.270Z,991.15
2017-09-11T04:33:26.805Z,991.17
2017-09-11T04:34:07.338Z,991.15
2017-09-11T04:34:47.860Z,991.18
2017-09-11T04:35:28.404Z,991.2
2017-09-11T04:36:08.924Z,991.17
2017-09-11T04:36:49.466Z,991.18
2017-09-11T04:37:29.981Z,991.19
2017-09-11T04:38:10.509Z,991.19
2017-09-11T04:38:51.034Z,991.18
2017-09-11T04:39:31.589Z,991.22
2017-09-11T04:40:12.120Z,991.19
2017-09-11T04:40:52.661Z,991.2
2017-09-11T04:41:33.194Z,991.16
2017-09-11T04:42:13.714Z,991.15
2017-09-11T04:42:54.230Z,991.08
2017-09-11T04:43:34.775Z,991.08
2017-09-11T04:44:15.319Z,991.07
2017-09-11T04:44:55.855Z,991.07
2017-09-11T04:45:36.388Z,991.03
2017-09-11T04:46:16.919Z,991.04
2017-09-11T04:46:57.436Z,991.04
2017-09-11T04:47:37.980Z,991.06
2017-09-11T04:48:18.526Z,991.06
2017-09-11T04:48:59.061Z,991.05
2017-09-11T04:49:39.593Z,991.07
2017-09-11T04:50:20.135Z,991.09
2017-09-11T04:51:00.666Z,991.09
2017-09-11T04:51:41.196Z,991.08
2017-09-11T04:52:21.726Z,991.05
2017-09-11T04:53:02.260Z,991.04
2017-09-11T04:53:42.774Z,991.08
2017-09-11T04:54:23.320Z,991.04
2017-09-11T04:55:03.837Z,991.05
2017-09-11T04:55:44.391Z,991.1
2017-09-11T04:56:24.926Z,991.08
2017-09-11T04:57:05.469Z,991.12
2017-09-11T04:57:46.000Z,991.12
2017-09-11T04:58:26.540Z,991.07
2017-09-11T04:59:07.072Z,991.08
2017-09-11T04:59:47.588Z,991.06
2017-09-11T05:00:28.123Z,991.04
2017-09-11T05:01:08.662Z,991.05
2017-09-11T05:01:49.189Z,991.12
2017-09-11T05:02:29.712Z,991.09
2017-09-11T05:03:10.256Z,991.09
2017-09-11T05:03:50.795Z,991.06
2017-09-11T05:04:31.331Z,991.03
2017-09-11T05:05:11.859Z,991.04
2017-09-11T05:05:52.395Z,991.08
2017-09-11T05:06:32.930Z,991.08
2017-09-11T05:07:13.454Z,991.11
2017-09-11T05:07:53.994Z,991.13
2017-09-11T05:08:34.520Z,991.12
2017-09-11T05:09:15.034Z,991.11
2017-09-11T05:09:55.565Z,991.14
2017-09-11T05:10:36.121Z,991.11
2017-09-11T05:11:16.657Z,991.14
2017-09-11T05:11:57.197Z,991.14
2017-09-11T05:12:37.734Z,991.18
2017-09-11T05:13:18.281Z,991.13
2017-09-11T05:13:58.816Z,991.15
2017-09-11T05:14:39.343Z,991.12
2017-09-11T05:15:19.905Z,991.11
2017-09-11T05:16:00.420Z,991.14
2017-09-11T05:16:40.951Z,991.13
2017-09-11T05:17:21.485Z,991.21
2017-09-11T05:18:02.023Z,991.22
2017-09-11T05:18:42.563Z,991.16
2017-09-11T05:19:23.096Z,991.18
2017-09-11T05:20:03.632Z,991.15
2017-09-11T05:20:44.168Z,991.13
2017-09-11T05:21:24.702Z,991.15
2017-09-11T05:22:05.235Z,991.15
2017-09-11T05:22:45.778Z,991.12
2017-09-11T05:23:26.311Z,991.15
2017-09-11T05:24:06.827Z,991.16
2017-09-11T05:24:47.363Z,991.19
2017-09-11T05:25:27.887Z,991.18
2017-09-11T05:26:08.414Z,991.2
2017-09-11T05:26:48.946Z,991.22
2017-09-11T05:27:29.480Z,991.15
2017-09-11T05:28:10.012Z,991.22
2017-09-11T05:28:50.519Z,991.2
2017-09-11T05:29:31.062Z,991.19
2017-09-11T05:30:11.594Z,991.21
2017-09-11T05:30:52.126Z,991.22
2017-09-11T05:31:32.666Z,991.22
2017-09-11T05:32:13.202Z,991.23
2017-09-11T05:32:53.741Z,991.23
2017-09-11T05:33:34.271Z,991.23
2017-09-11T05:34:14.804Z,991.24
2017-09-11T05:34:55.332Z,991.26
2017-09-11T05:35:35.880Z,991.24
2017-09-11T05:36:16.420Z,991.26
2017-09-11T05:36:56.947Z,991.31
2017-09-11T05:37:37.459Z,991.3
2017-09-11T05:38:17.989Z,991.31
2017-09-11T05:38:58.600Z,991.32
2017-09-11T05:39:39.145Z,991.36
2017-09-11T05:40:19.678Z,991.36
2017-09-11T05:41:00.208Z,991.36
2017-09-11T05:41:40.743Z,991.35
2017-09-11T05:42:21.287Z,991.4
2017-09-11T05:43:01.821Z,991.41
2017-09-11T05:43:42.379Z,991.44
2017-09-11T05:44:22.919Z,991.45
2017-09-11T05:45:03.450Z,991.42
2017-09-11T05:45:43.980Z,991.43
2017-09-11T05:46:24.510Z,991.47
2017-09-11T05:47:05.052Z,991.47
2017-09-11T05:47:45.593Z,991.48
2017-09-11T05:48:26.132Z,991.49
2017-09-11T05:49:06.667Z,991.53
2017-09-11T05:49:47.185Z,991.56
2017-09-11T05:50:27.717Z,991.6
2017-09-11T05:51:08.249Z,991.67
2017-09-11T05:51:48.796Z,991.69
2017-09-11T05:52:29.325Z,991.74
2017-09-11T05:53:09.844Z,991.79
2017-09-11T05:53:50.367Z,991.84
2017-09-11T05:54:30.913Z,991.85
2017-09-11T05:55:11.446Z,991.88
2017-09-11T05:55:51.985Z,991.92
2017-09-11T05:56:32.521Z,991.93
2017-09-11T05:57:13.036Z,991.94
2017-09-11T05:57:53.570Z,991.97
2017-09-11T05:58:34.103Z,991.9
2017-09-11T05:59:14.642Z,991.87
2017-09-11T05:59:55.185Z,991.81
2017-09-11T06:00:35.763Z,991.75
2017-09-11T06:01:16.304Z,991.75
2017-09-11T06:01:56.821Z,991.73
2017-09-11T06:02:37.352Z,991.71
2017-09-11T06:03:17.885Z,991.68
2017-09-11T06:03:58.431Z,991.7
2017-09-11T06:04:38.966Z,991.73
2017-09-11T06:05:19.508Z,991.67
2017-09-11T06:06:00.049Z,991.65
2017-09-11T06:06:40.586Z,991.64
2017-09-11T06:07:21.110Z,991.71
2017-09-11T06:08:01.648Z,991.74
2017-09-11T06:08:42.180Z,991.74
2017-09-11T06:09:22.709Z,991.75
2017-09-11T06:10:03.234Z,991.75
2017-09-11T06:10:43.771Z,991.77
2017-09-11T06:11:24.304Z,991.74
2017-09-11T06:12:04.830Z,991.76
2017-09-11T06:12:45.366Z,991.73
2017-09-11T06:13:25.904Z,991.77
2017-09-11T06:14:06.433Z,991.83
2017-09-11T06:14:46.964Z,991.81
2017-09-11T06:15:27.492Z,991.8
2017-09-11T06:16:08.022Z,991.82
2017-09-11T06:16:48.549Z,991.82
2017-09-11T06:17:29.090Z,991.82
2017-09-11T06:18:09.630Z,991.82
2017-09-11T06:18:50.161Z,991.85
2017-09-11T06:19:30.691Z,991.79
2017-09-11T06:20:11.220Z,991.77
2017-09-11T06:20:51.763Z,991.74
2017-09-11T06:21:32.321Z,991.77
2017-09-11T06:22:12.865Z,991.85
2017-09-11T06:22:53.395Z,991.83
2017-09-11T06:23:33.930Z,991.89
2017-09-11T06:24:14.433Z,991.81
2017-09-11T06:24:54.978Z,991.81
2017-09-11T06:25:35.523Z,991.83
2017-09-11T06:26:16.056Z,991.81
2017-09-11T06:26:56.582Z,991.86
2017-09-11T06:27:37.130Z,991.87
2017-09-11T06:28:17.657Z,991.84
2017-09-11T06:28:58.185Z,991.86
2017-09-11T06:29:38.725Z,991.89
2017-09-11T06:30:19.264Z,991.86
2017-09-11T06:30:59.810Z,991.86
2017-09-11T06:31:40.348Z,991.85
2017-09-11T06:32:20.881Z,991.82
2017-09-11T06:33:01.409Z,991.84
2017-09-11T06:33:41.939Z,991.89
2017-09-11T06:34:22.476Z,991.82
2017-09-11T06:35:03.008Z,991.94
2017-09-11T06:35:43.546Z,991.9
2017-09-11T06:36:24.081Z,991.89
2017-09-11T06:37:04.608Z,991.88
2017-09-11T06:37:45.129Z,991.89
2017-09-11T06:38:25.668Z,991.94
2017-09-11T06:39:06.199Z,991.95
2017-09-11T06:39:46.716Z,991.91
2017-09-11T06:40:27.249Z,991.87
2017-09-11T06:41:07.781Z,991.92
2017-09-11T06:41:48.322Z,991.83
2017-09-11T06:42:28.862Z,991.9
2017-09-11T06:43:09.404Z,991.87
2017-09-11T06:43:49.968Z,991.91
2017-09-11T06:44:30.511Z,991.88
2017-09-11T06:45:11.031Z,991.89
2017-09-11T06:45:51.561Z,991.85
2017-09-11T06:46:32.094Z,991.88
2017-09-11T06:47:12.625Z,991.9
2017-09-11T06:47:53.165Z,991.9
2017-09-11T06:48:33.688Z,991.91
2017-09-11T06:49:14.220Z,991.91
2017-09-11T06:49:54.743Z,991.94
2017-09-11T06:50:35.279Z,991.94
2017-09-11T06:51:15.820Z,991.93
2017-09-11T06:51:56.357Z,991.96
2017-09-11T06:52:36.890Z,991.93
2017-09-11T06:53:17.412Z,991.92
2017-09-11T06:53:57.943Z,991.9
2017-09-11T06:54:38.484Z,991.91
2017-09-11T06:55:18.991Z,991.92
2017-09-11T06:55:59.512Z,991.92
2017-09-11T06:56:40.056Z,991.94
2017-09-11T06:57:20.594Z,991.97
2017-09-11T06:58:01.129Z,992
2017-09-11T06:58:41.670Z,992.03
2017-09-11T06:59:22.212Z,992.06
2017-09-11T07:00:02.742Z,992.06
2017-09-11T07:00:43.313Z,992.04
2017-09-11T07:01:23.835Z,992.03
2017-09-11T07:02:04.366Z,992.03
2017-09-11T07:02:44.896Z,992.02
2017-09-11T07:03:25.437Z,992.04
2017-09-11T07:04:05.976Z,992.02
2017-09-11T07:04:46.516Z,992.05
2017-09-11T07:05:27.045Z,992.05
2017-09-11T07:06:07.570Z,992.04
2017-09-11T07:06:48.100Z,992.04
2017-09-11T07:07:28.638Z,992.09
2017-09-11T07:08:09.177Z,992.12
2017-09-11T07:08:49.677Z,992.11
2017-09-11T07:09:30.205Z,992.13
2017-09-11T07:10:10.749Z,992.14
2017-09-11T07:10:51.279Z,992.12
2017-09-11T07:11:31.809Z,992.13
2017-09-11T07:12:12.323Z,992.09
2017-09-11T07:12:52.859Z,992.05
2017-09-11T07:13:33.401Z,992.04
2017-09-11T07:14:13.933Z,992.04
2017-09-11T07:14:54.454Z,992.01
2017-09-11T07:15:34.989Z,991.97
2017-09-11T07:16:15.509Z,992.07
2017-09-11T07:16:56.049Z,992.1
2017-09-11T07:17:36.586Z,992.08
2017-09-11T07:18:17.108Z,992.13
2017-09-11T07:18:57.644Z,992.12
2017-09-11T07:19:38.178Z,992.12
2017-09-11T07:20:18.700Z,992.1
2017-09-11T07:20:59.237Z,992.11
2017-09-11T07:21:39.780Z,992.14
2017-09-11T07:22:20.333Z,992.15
2017-09-11T07:23:00.867Z,992.15
2017-09-11T07:23:41.403Z,992.16
2017-09-11T07:24:21.936Z,992.18
2017-09-11T07:25:02.471Z,992.19
2017-09-11T07:25:43.004Z,992.18
2017-09-11T07:26:23.541Z,992.26
2017-09-11T07:27:04.043Z,992.25
2017-09-11T07:27:44.562Z,992.24
2017-09-11T07:28:25.096Z,992.29
2017-09-11T07:29:05.627Z,992.25
2017-09-11T07:29:46.150Z,992.24
2017-09-11T07:30:26.692Z,992.25
2017-09-11T07:31:07.218Z,992.27
2017-09-11T07:31:47.753Z,992.23
2017-09-11T07:32:28.293Z,992.26
2017-09-11T07:33:08.828Z,992.21
2017-09-11T07:33:49.356Z,992.25
2017-09-11T07:34:29.940Z,992.29
2017-09-11T07:35:10.470Z,992.25
2017-09-11T07:35:50.997Z,992.27
2017-09-11T07:36:31.518Z,992.33
2017-09-11T07:37:12.060Z,992.27
2017-09-11T07:37:52.597Z,992.28
2017-09-11T07:38:33.136Z,992.21
2017-09-11T07:39:13.674Z,992.26
2017-09-11T07:39:54.206Z,992.27
2017-09-11T07:40:34.733Z,992.32
2017-09-11T07:41:15.260Z,992.29
2017-09-11T07:41:55.761Z,992.25
2017-09-11T07:42:36.274Z,992.28
2017-09-11T07:43:16.814Z,992.28
2017-09-11T07:43:57.351Z,992.27
2017-09-11T07:44:37.892Z,992.23
2017-09-11T07:45:18.416Z,992.23
2017-09-11T07:45:58.935Z,992.23
2017-09-11T07:46:39.482Z,992.23
2017-09-11T07:47:20.007Z,992.22
2017-09-11T07:48:00.548Z,992.22
2017-09-11T07:48:41.075Z,992.25
2017-09-11T07:49:21.601Z,992.22
2017-09-11T07:50:02.136Z,992.27
2017-09-11T07:50:42.657Z,992.3
2017-09-11T07:51:23.199Z,992.29
2017-09-11T07:52:03.734Z,992.28
2017-09-11T07:52:44.268Z,992.32
2017-09-11T07:53:24.801Z,992.29
2017-09-11T07:54:05.334Z,992.36
2017-09-11T07:54:45.862Z,992.39
2017-09-11T07:55:26.382Z,992.41
2017-09-11T07:56:06.905Z,992.4
2017-09-11T07:56:47.433Z,992.47
2017-09-11T07:57:27.971Z,992.48
2017-09-11T07:58:08.512Z,992.49
2017-09-11T07:58:49.044Z,992.5
2017-09-11T07:59:29.558Z,992.52
2017-09-11T08:00:10.098Z,992.51
2017-09-11T08:00:50.631Z,992.52
2017-09-11T08:01:31.170Z,992.55
2017-09-11T08:02:11.708Z,992.56
2017-09-11T08:02:52.251Z,992.53
2017-09-11T08:03:32.787Z,992.52
2017-09-11T08:04:13.308Z,992.54
2017-09-11T08:04:53.833Z,992.54
2017-09-11T08:05:34.372Z,992.53
2017-09-11T08:06:14.908Z,992.51
2017-09-11T08:06:55.433Z,992.5
2017-09-11T08:07:35.965Z,992.5
2017-09-11T08:08:16.506Z,992.48
2017-09-11T08:08:57.047Z,992.47
2017-09-11T08:09:37.585Z,992.46
2017-09-11T08:10:18.124Z,992.48
2017-09-11T08:10:58.654Z,992.41
2017-09-11T08:11:39.212Z,992.44
2017-09-11T08:12:19.721Z,992.45
2017-09-11T08:13:00.252Z,992.46
2017-09-11T08:13:40.809Z,992.46
2017-09-11T08:14:21.338Z,992.47
2017-09-11T08:15:01.873Z,992.49
2017-09-11T08:15:42.400Z,992.5
2017-09-11T08:16:22.931Z,992.52
2017-09-11T08:17:03.463Z,992.5
2017-09-11T08:17:43.983Z,992.57
2017-09-11T08:18:24.518Z,992.57
2017-09-11T08:19:05.044Z,992.58
2017-09-11T08:19:45.591Z,992.59
2017-09-11T08:20:26.109Z,992.52
2017-09-11T08:21:06.659Z,992.54
2017-09-11T08:21:47.205Z,992.47
2017-09-11T08:22:27.755Z,992.47
2017-09-11T08:23:08.285Z,992.44
2017-09-11T08:23:48.837Z,992.44
2017-09-11T08:24:29.381Z,992.48
2017-09-11T08:25:09.926Z,992.51
2017-09-11T08:25:50.449Z,992.52
2017-09-11T08:26:30.996Z,992.48
2017-09-11T08:27:11.527Z,992.47